Weather at Shoshone Medical Center Heliport

Public forecast

Using degrees Fahrenheit for public forecast. Weather courtesy of forecast.io.

Closest aviation weather report (METAR) to Shoshone Medical Center Heliport

Closest report is Coeur D'Alene - Pappy Boyington Field, 31.0 nm (57.5 km) WNW. Retrieved 2021/07/28 00:56 UTC (15 minutes ago):

KCOE 280056Z AUTO 32003KT 10SM FEW100 25/11 A3008 RMK AO2 RAE18 SLP187 P0000 T02500111

Closest aviation forecast (TAF) to Shoshone Medical Center Heliport

Closest forecast is Coeur D'Alene - Pappy Boyington Field, 31.0 nm (57.5 km) WNW. Retrieved 2021-07-28 00:22 UTC (49 minutes ago):

TAF KCOE 272320Z 2800/2824 24009KT P6SM VCSH BKN250 FM280300 15005KT P6SM BKN120 OVC150 FM281200 10004KT 6SM HZ BKN100 BKN250 FM281800 VRB04KT P6SM SCT100